Gustav Ibrahimovic

Recruteur en chef - Djurgarden
5 Déc 2027
Dimanche
Processus

Personnalité

Adaptabilité (15) Ambition (8) Controverse (18) Loyauté (12) Pression (5) Professionnalisme (8) Sportivité (12) Tempérament (2)

Profil

Style d'entraînement Démocratique
Diplôme Continental B
Détermination 4
Gestion des joueurs 13
Motivation 7
Discipline 9
Satisfaction professionnelle
90%
Fatigue
0%
Rôle Recruteur en chef
Salaire 68.0K p/s
Contrat 14.03.2030

Performance

Comportement Bon
Efficacité de l'entraînement
45%
Développement des joueurs
55%
Prévention des blessures
60%
Mise en place tactique
60%

Événements récents

A recommandé une cible de transfert maintenant
A recommandé une cible de transfert maintenant
A recommandé une cible de transfert maintenant
A recommandé une cible de transfert maintenant
A recommandé une cible de transfert maintenant
A recommandé une cible de transfert maintenant
A évalué un joueur maintenant
A évalué un joueur maintenant

Suivi en cours

258
Joueur Club Statut Capacité Confiance Observé Dernière observation Dernier vote
Victor Hernandez Santa Fe Actif 110 / 128 40% 7 04.12.2027 -
Abdulrahman Hamisu Niger Tornadoes Actif 97 / 85 40% 4 04.12.2027 -
Kaique Kenji Fortaleza Actif 112 / 111 40% 6 04.12.2027 -
Albert Aleksanjan IFK Norrkoping Actif 90 / 98 40% 6 03.12.2027 -
Mateo Silvetti Seattle Sounders Actif 123 / 131 40% 3 03.12.2027 -
Ruben Ramos LA Galaxy Actif 101 / 100 40% 5 03.12.2027 -
Chimobi Igwilo Rangers International Actif 88 / 92 40% 7 02.12.2027 -
Dylan Cabral Arsenal Actif 92 / 99 40% 7 02.12.2027 -
Francisco Triver River Plate Actif 85 / 94 40% 3 01.12.2027 -
Valentino Acuña Newell's Old Boys Actif 113 / 121 40% 3 01.12.2027 -
Agustín De la Cuesta Racing Actif 114 / 121 40% 8 29.11.2027 -
Mateo Peralta Danubio Actif 108 / 108 40% 3 29.11.2027 -
Luka Andrade Montevideo City Torque Actif 100 / 119 40% 8 27.11.2027 -
Christ Wawa Gefle Actif 108 / 103 40% 2 27.11.2027 -
Flávio Gonçalves Sporting CP Actif 126 / 131 40% 1 25.11.2027 -
Nupe Godstime Bayelsa United Actif 88 / 105 40% 5 24.11.2027 -
Keyano Marrah Hammarby Actif 95 / 102 40% 2 24.11.2027 -
Mustapha Umar Kano Pillars Actif 91 / 92 40% 6 22.11.2027 -
Martín Jiménez Audax Italiano Actif 110 / 100 40% 3 20.11.2027 -
Imran Musa Atvidaberg Actif 93 / 92 40% 1 20.11.2027 -
Melvin Vučenović Persson Atvidaberg Actif 88 / 87 40% 1 19.11.2027 -
Maren Kefas Plateau United Actif 82 / 103 40% 4 18.11.2027 -
Joseph Abah Remo Stars Actif 80 / 89 40% 1 18.11.2027 -
Nicolás Barros Schelotto Gimnasia La Plata Actif 130 / 137 40% 5 16.11.2027 -
Adrian Skogmar Malmo FF Actif 108 / 117 40% 7 13.11.2027 -
Bautista Carboni Defensores Unidos Actif 96 / 112 40% 5 13.11.2027 -
Rafael Moreno Atletico Venezuela Actif 114 / 116 40% 5 11.11.2027 -
Rasmus Nehrman Gefle Actif 80 / 86 40% 1 07.11.2027 -
Kenan Busuladžić Malmo FF Actif 114 / 116 40% 3 05.11.2027 -
Alex Amaefula Kun Khalifat Actif 77 / 80 40% 2 01.11.2027 -
Ben Gannon Doak Charlton Athletic Actif 139 / 141 40% 2 30.10.2027 -
Joel Ezra Enyimba Actif 91 / 91 40% 3 29.10.2027 -
Giovanni Baroni Talleres Actif 110 / 119 40% 2 29.10.2027 -
Idris Ajiya Nasarawa United Actif 90 / 89 40% 4 25.10.2027 -
Alex Verón Vélez Actif 103 / 131 40% 1 25.10.2027 -
Matias Siltanen Malmo FF Actif 125 / 130 40% 3 23.10.2027 -
Jeremías Merlo Gimnasia La Plata Actif 125 / 118 40% 2 22.10.2027 -
Joel Orlando Almagro Actif 107 / 125 40% 5 19.10.2027 -
Tiago Pucciarelli IF Elfsborg Actif 97 / 111 40% 2 19.10.2027 -
Matías Arias Vélez Actif 123 / 119 40% 1 19.10.2027 -
Abubakar Garba Nasarawa United Actif 97 / 98 40% 6 17.10.2027 -
Juan Rodríguez Cerro Largo Actif 85 / 103 40% 2 15.10.2027 -
Lucas Duré Montevideo City Torque Actif 95 / 116 40% 1 13.10.2027 -
Léo Llaneros Actif 83 / 92 40% 1 13.10.2027 -
Hassan Beja AFC Leopards Actif 99 / 92 40% 3 10.10.2027 -
Wisdom Udom Bendel Insurance Actif 78 / 94 40% 4 07.10.2027 -
Didier Dawson Envigado Actif 97 / 111 40% 1 01.10.2027 -
Noah Streit CF Montreal Actif 114 / 112 40% 2 15.09.2027 -
Emmanuel Ndubueze Shooting Stars Actif 96 / 104 40% 1 16.08.2027 -
Abdoulaye Allamine Stars Jeunes Talents Actif 69 / 82 40% 1 16.08.2027 -
Pedro de la Vega Columbus Crew Actif 133 / 134 66% 1 16.07.2027 Approuver
Leo Castledine Middlesbrough Actif 134 / 131 40% 4 15.07.2027 -
Caleb Yirenkyi Coventry City Actif 134 / 135 40% 9 15.07.2027 -
Calum Agius Crewe Alexandra Actif 96 / 91 40% 3 15.07.2027 -
Assane Diao Como Actif 150 / 154 40% 11 13.07.2027 -
Daniel Awuni Aduana Stars Actif 96 / 84 40% 6 13.07.2027 -
Riley Owen Stevenage Actif 113 / 106 40% 3 08.07.2027 -
Charlie Gray Fleetwood Town Actif 91 / 104 40% 6 08.07.2027 -
Ishmael Addo Heart of Lions Actif 90 / 95 40% 2 08.07.2027 -
Othmane Maamma Watford Actif 137 / 132 40% 4 07.07.2027 -
Elijas Gunnergård Ortan Ahrobiznes Actif 82 / 94 40% 5 06.07.2027 -
Mohamadou Kanté Crawley Town Actif 118 / 125 40% 2 06.07.2027 -
João Abreu Porto Actif 102 / 113 40% 3 05.07.2027 -
Jan Bürger Northampton Town Actif 114 / 130 40% 4 01.07.2027 -
Nana Nuhu WAFA Actif 95 / 86 40% 4 01.07.2027 -
Jesús Rodríguez Como Actif 147 / 152 40% 3 28.06.2027 -
Stevan Manuel Benfica Actif 92 / 103 40% 1 28.06.2027 -
Germán Barbas Burgos Actif 104 / 119 40% 5 27.06.2027 -
Lautaro Millán Osasuna Actif 122 / 123 40% 2 27.06.2027 -
Bazoumana Touré Newcastle United Actif 149 / 155 40% 3 23.06.2027 -
Ethan Williams Peterborough United Actif 123 / 117 40% 1 23.06.2027 -
Bongani Jali Free State Stars Actif 97 / 118 40% 4 22.06.2027 -
Sindre Walle Egeli Udinese Actif 136 / 126 40% 2 13.06.2027 -
Araphat Mohammed Ashanti Gold Actif 112 / 102 40% 3 11.06.2027 -
Luke Baartman Ajax Cape Town Actif 101 / 98 40% 1 11.06.2027 -
Lander Astiazarán Real Sociedad Actif 104 / 118 40% 3 10.06.2027 -
Gladson Adjei WAFA Actif 72 / 80 40% 1 09.06.2027 -
Romelle Donovan Brentford Actif 135 / 137 40% 6 08.06.2027 -
Zane Albarus Shrewsbury Town Actif 83 / 98 40% 2 07.06.2027 -
Rhys Walters Port Vale Actif 96 / 116 40% 1 07.06.2027 -
Tiago Freitas Benfica Actif 101 / 124 40% 1 03.06.2027 -
Gabriele Bertolini Vicenza Actif 101 / 110 40% 1 03.06.2027 -
Asanele Bonani Chippa United Actif 99 / 84 40% 1 03.06.2027 -
Víctor Guzmán Sporting CP Actif 97 / 110 40% 1 01.06.2027 -
Edwin Asamoah Berekum Chelsea Actif 75 / 97 40% 2 30.05.2027 -
Williams Wonah AS Police Actif 78 / 70 40% 1 26.05.2027 -
Lewis Miley Newcastle United Actif 155 / 142 40% 4 25.05.2027 -
Kirill Glebov CSKA Moscow Actif 131 / 121 40% 1 24.05.2027 -
Nestory Irankunda Watford Actif 127 / 133 40% 1 13.05.2027 -
André Miranda Porto Actif 91 / 100 40% 1 13.05.2027 -
Alphadjo Cissé Lecce Actif 129 / 137 40% 1 12.05.2027 -
Oscar Schwartau Norwich City Actif 111 / 128 40% 1 06.05.2027 -
Alen Zahirović Gefle Actif 78 / 81 30% 1 / 1m 05.05.2027 -
Salvador Blopá Sporting CP Actif 120 / 111 40% 1 04.05.2027 -
Hamse Shagaxle Angusht Actif 77 / 91 40% 1 04.05.2027 -
Jake Batty Plymouth Argyle Actif 109 / 119 40% 2 23.04.2027 -
Jenson Jones Walsall Actif 91 / 104 40% 2 23.04.2027 -
Mattia Puzone Siracusa Actif 101 / 112 40% 3 23.04.2027 -
Matvey Kislyak CSKA Moscow Actif 140 / 148 40% 4 21.04.2027 -
Bernardo Lima Porto Actif 86 / 96 40% 1 21.04.2027 -
Gonçalo Oliveira Benfica Actif 112 / 105 40% 2 20.04.2027 -
Lucas Bergvall Tottenham Actif 153 / 165 40% 2 19.04.2027 -
Josh King Newcastle United Actif 130 / 135 40% 1 18.04.2027 -
Pietro Reggiori Pro Patria Actif 84 / 109 40% 5 16.04.2027 -
Chari Giwa US Bougouni Actif 67 / 70 40% 1 16.04.2027 -
Samuele di Benedetto Twente Actif 107 / 110 40% 1 16.04.2027 -
Rivaldo Mkhize Black Aces Actif 89 / 75 40% 1 15.04.2027 -
Leandro Martins Benfica Actif 98 / 85 40% 1 15.04.2027 -
Jobe Bellingham Borussia Dortmund Actif 131 / 133 40% 2 14.04.2027 -
Surprise Manthosi Polokwane City Actif 96 / 89 40% 3 14.04.2027 -
Tommaso Cecotti Carpi Actif 83 / 85 40% 1 12.04.2027 -
Ivan Giraldo Valencia Actif 109 / 126 40% 1 10.04.2027 -
Konta Ismaily Actif 92 / 91 40% 1 09.04.2027 -
Ahmed Zaki Masr El Makasa Actif 87 / 95 40% 1 09.04.2027 -
Afriyie Sulemana WAFA Actif 84 / 99 40% 1 05.04.2027 -
Kazunari Kita Real Sociedad Actif 99 / 108 40% 1 05.04.2027 -
Jaydee Canvot Crystal Palace Actif 128 / 132 40% 1 29.03.2027 -
David Ozoh Derby County Actif 119 / 120 40% 1 15.03.2027 -
Axel Frugone Athletic Bilbao Actif 113 / 119 40% 1 08.03.2027 -
Lwanda Mbanjwa Platinum Stars Actif 99 / 100 40% 1 22.02.2027 -
Mikel Gogorza Brondby Actif 118 / 118 40% 1 16.02.2027 -
Rocco Vata Watford Actif 113 / 111 40% 4 04.02.2027 -
Fletcher Holman Swindon Town Actif 77 / 100 40% 1 04.02.2027 -
Nicolás Fernández Mercau FC Copenhagen Négociation 134 / 134 67% 1 01.02.2027 Approuver
Facundo Torres Shakhtar Actif 134 / 134 67% 1 01.02.2027 Approuver
Konstantin Tyukavin Osasuna Négociation 133 / 135 78% 1 01.02.2027 Approuver
Bitello SC Freiburg Actif 135 / 135 68% 1 01.02.2027 Approuver
Martin Cedidla Shakhtar Négociation 131 / 132 66% 1 01.02.2027 Approuver
Ethan Pye Stockport County Actif 123 / 125 40% 1 01.02.2027 -
Álex Centelles Levski Actif 129 / 132 40% 1 01.02.2027 -
Stav Toriel Hapoel Tel Aviv Actif 137 / 114 40% 2 31.01.2027 -
Isaiah Jones Luton Town Actif 116 / 134 40% 1 31.01.2027 -
Cian Ashford Cardiff City Actif 111 / 127 40% 1 31.01.2027 -
João Félix Dinamo Moscow Actif 156 / 155 40% 6 30.01.2027 -
Callum O'Hare Sheffield United Actif 130 / 140 40% 4 30.01.2027 -
Sam Greenwood Bristol City Actif 131 / 121 40% 5 30.01.2027 -
Bradley Zwane SuperSport United Actif 112 / 125 40% 3 29.01.2027 -
Joe Gelhardt Hull City Actif 128 / 126 40% 7 29.01.2027 -
Emmanuel Boateng Hapoel Tel Aviv Actif 128 / 132 40% 4 29.01.2027 -
Melker Widell Swansea City Actif 119 / 110 40% 1 29.01.2027 -
Anthony Patterson Wrexham Actif 142 / 142 40% 3 28.01.2027 -
Lukas Jensen Millwall Actif 114 / 130 40% 1 28.01.2027 -
Arthur Beroe Actif 115 / 114 40% 1 28.01.2027 -
Ivan Sergeev Dinamo Moscow Actif 131 / 120 40% 3 27.01.2027 -
Arthur Gomes Dinamo Moscow Actif 125 / 116 40% 1 23.01.2027 -
Ioannis Pittas CSKA Sofia Actif 125 / 123 40% 2 22.01.2027 -
Mohamed-Ali Cho Hull City Actif 139 / 146 40% 1 20.01.2027 -
Maduka Okoye Udinese Actif 141 / 137 40% 2 19.01.2027 -
Richard Ludha MFK Skalica Actif 109 / 106 40% 1 19.01.2027 -
Michael Cooper Sheffield United Actif 120 / 125 40% 1 19.01.2027 -
Edoardo Bove Watford Actif 132 / 137 40% 1 17.01.2027 -
Bongani Zungu Ajax Cape Town Actif 124 / 132 40% 5 16.01.2027 -
Derensili Sanches Fernandes Huddersfield Town Actif 121 / 117 40% 1 15.01.2027 -
Ali Ahmed Norwich City Actif 131 / 134 40% 1 13.01.2027 -
Jack McGlynn Stoke City Actif 119 / 145 40% 1 12.01.2027 -
Tom Fellows Southampton Actif 126 / 123 40% 1 12.01.2027 -
Ilyas Ansah Hull City Actif 119 / 119 40% 3 09.01.2027 -
Oli McBurnie Hull City Actif 124 / 137 40% 3 08.01.2027 -
Tyrese Campbell Sheffield United Actif 131 / 116 40% 3 08.01.2027 -
Daniel Paraschiv Bnei Sakhnin Actif 129 / 108 40% 1 07.01.2027 -
Marcelo Allende Mamelodi Sundowns Actif 133 / 135 40% 2 02.01.2027 -
Harry Clarke Preston Actif 130 / 140 40% 1 02.01.2027 -
Patson Daka Leicester City Actif 127 / 119 40% 1 01.01.2027 -
Mathias Kvistgaarden Norwich City Actif 113 / 107 40% 1 01.01.2027 -
Habib Diarra Sunderland Actif 134 / 153 40% 1 31.12.2026 -
Rhian Brewster Oleksandriya Actif 126 / 121 40% 4 29.12.2026 -
Armstrong Oko-Flex Levski Actif 118 / 127 40% 3 29.12.2026 -
Ammar Ramadan DAC Dunajska Streda Actif 119 / 132 40% 1 29.12.2026 -
Cho Gue-Sung FC Midtjylland Actif 122 / 136 40% 1 28.12.2026 -
Elijah Adebayo Luton Town Actif 112 / 127 40% 1 28.12.2026 -
Mustapha Sangaré Levski Actif 123 / 124 40% 2 27.12.2026 -
Zian Flemming Ipswich Town Actif 135 / 123 40% 3 27.12.2026 -
Cameron Archer Southampton Actif 132 / 113 40% 1 24.12.2026 -
Veljko Birmančević Ferencvaros Actif 143 / 142 40% 3 21.12.2026 -
Milan van Ewijk Coventry City Actif 128 / 119 40% 1 21.12.2026 -
Amar Memić Viktoria Plzen Actif 123 / 131 40% 2 20.12.2026 -
Reda Khadra Qarabag Actif 142 / 146 40% 3 20.12.2026 -
Che Adams Torino Actif 132 / 154 40% 2 16.12.2026 -
Murphy Cooper Plymouth Argyle Actif 106 / 111 40% 1 16.12.2026 -
János Uram Vasas Actif 99 / 95 40% 1 16.12.2026 -
Aune Heggebø West Bromwich Albion Actif 136 / 122 40% 2 14.12.2026 -
Tyrhys Dolan Espanyol Actif 141 / 136 40% 1 12.12.2026 -
Bobby Clark Derby County Actif 125 / 119 40% 1 12.12.2026 -
Kwadwo Duah Ludogorets Actif 122 / 121 40% 1 12.12.2026 -
Morgan Guilavogui Real Salt Lake Actif 124 / 128 40% 4 09.12.2026 -
Josh Keeley Luton Town Actif 123 / 116 40% 1 09.12.2026 -
Zach Hemming Chesterfield Actif 106 / 93 40% 1 09.12.2026 -
Kyle Wootton Stockport County Actif 110 / 131 40% 1 07.12.2026 -
Sota Kitano Red Bull Salzburg Actif 123 / 138 40% 2 06.12.2026 -
Assad Al Hamlawi Universitatea Craiova Actif 116 / 109 40% 3 05.12.2026 -
Wessam Abou Ali Columbus Crew Actif 140 / 146 40% 3 30.11.2026 -
Elmin Rastoder Panathinaikos Actif 123 / 125 40% 2 30.11.2026 -
Petter Nosa Dahl Rapid Wien Actif 117 / 137 40% 1 30.11.2026 -
Ola Brynhildsen Rapid Wien Actif 117 / 143 40% 2 29.11.2026 -
Ondřej Lingr Korona Actif 126 / 128 40% 2 28.11.2026 -
Max Fenger Helsingborg Actif 116 / 111 40% 8 28.11.2026 -
Petar Musa FC Dallas Actif 129 / 148 40% 4 23.11.2026 -
Luka Jović CFR Cluj Actif 129 / 129 40% 4 19.11.2026 -
Jonathan Dellarossa Lokomotiv Plovdiv Actif 112 / 113 40% 2 19.11.2026 -
Michele Šego Hajduk Split Actif 123 / 120 40% 1 18.11.2026 -
Germán Berterame Inter Miami CF Actif 143 / 135 40% 1 15.11.2026 -
Kévin Denkey FC Cincinnati Actif 119 / 112 40% 3 14.11.2026 -
Alexey Miranchuk Atlanta United FC Actif 152 / 149 40% 1 14.11.2026 -
Erik Botheim Viking Actif 134 / 130 40% 1 14.11.2026 -
Tomáš Chorý Slavia Prague Actif 148 / 136 40% 2 13.11.2026 -
Tadeo Allende Inter Miami CF Actif 118 / 119 40% 1 13.11.2026 -
Brian White Vancouver Whitecaps Actif 125 / 109 40% 2 12.11.2026 -
Vegard Erlien Tromso Actif 132 / 122 40% 2 07.11.2026 -
Yorbe Vertessen Red Bull Salzburg Actif 124 / 143 40% 1 05.11.2026 -
Talles Magno New York City Actif 129 / 142 40% 6 02.11.2026 -
Jesus Ferreira Seattle Sounders Actif 121 / 118 40% 2 02.11.2026 -
Daniel Kyerewaa Reading Actif 115 / 106 40% 1 02.11.2026 -
Bénie Traoré New York City Actif 123 / 119 40% 1 29.10.2026 -
Marcus Ingvartsen San Diego Football Club Actif 127 / 112 40% 1 27.10.2026 -
Paulos Abraham Hammarby Actif 127 / 119 40% 1 26.10.2026 -
Leonardo Campana New England Revolution Actif 120 / 116 40% 1 26.10.2026 -
Diego García Malmo FF Actif 112 / 124 40% 2 25.10.2026 -
John Mercado Sparta Prague Actif 131 / 119 40% 1 25.10.2026 -
Manfred Ugalde Spartak Moscow Actif 133 / 133 40% 1 25.10.2026 -
Alexander Aravena Portland Timbers Actif 118 / 121 40% 1 24.10.2026 -
Anderson Julio FC Dallas Actif 111 / 133 40% 1 19.10.2026 -
Mojmír Chytil Slavia Prague Actif 136 / 140 40% 2 18.10.2026 -
Matías Pellegrini Vélez Actif 129 / 104 40% 1 18.10.2026 -
Oswin Appollis Orlando Pirates Actif 131 / 109 40% 1 18.10.2026 -
João Klauss LA Galaxy Actif 135 / 112 40% 1 14.10.2026 -
Andrés Herrera Columbus Crew Actif 134 / 113 40% 1 14.10.2026 -
Håkon Evjen Bodo/Glimt Actif 132 / 132 40% 1 14.10.2026 -
Cheikh Sabaly Vancouver Whitecaps Actif 117 / 137 40% 2 12.10.2026 -
Sead Hakšabanović Malmo FF Actif 126 / 108 40% 4 11.10.2026 -
Dejan Joveljić Seattle Sounders Actif 136 / 121 40% 2 11.10.2026 -
Martín Ojeda Orlando City Actif 132 / 119 40% 2 10.10.2026 -
Brandon Vázquez Austin FC Actif 122 / 130 40% 1 10.10.2026 -
Themba Williams Ajax Cape Town Actif 104 / 124 40% 1 09.10.2026 -
Dániel Gazdag New England Revolution Actif 131 / 115 40% 1 07.10.2026 -
Telasco Segovia Inter Miami CF Actif 142 / 118 40% 1 06.10.2026 -
Warren Kamanzi Malmo FF Actif 124 / 130 40% 2 05.10.2026 -
Santiago Rodríguez Columbus Crew Actif 120 / 140 40% 2 05.10.2026 -
Ramiro Ruiz Rodríguez Atlético Tucumán Actif 116 / 114 40% 2 29.09.2026 -
Andreas Helmersen Bodo/Glimt Actif 125 / 112 40% 1 29.09.2026 -
David Kruse IFK Goteborg Actif 121 / 106 40% 1 29.09.2026 -
Esequiel Barco Spartak Moscow Actif 135 / 146 40% 1 28.09.2026 -
Indiana Vassilev Philadelphia Union Actif 111 / 111 40% 1 27.09.2026 -
Hannes Wolf New York City Actif 137 / 124 40% 1 27.09.2026 -
Facundo Mura Inter Miami CF Actif 113 / 141 40% 1 25.09.2026 -
Victor Lind Hammarby Actif 121 / 132 40% 1 25.09.2026 -
Sam Surridge Nashville SC Actif 129 / 131 40% 3 23.09.2026 -
Marcelo Torres Gimnasia La Plata Actif 112 / 103 40% 1 23.09.2026 -
Alonso Martínez New York City Actif 109 / 111 40% 1 16.09.2026 -
Mariano Bracamonte Deportivo Riestra Actif 121 / 107 40% 1 16.09.2026 -
Duncan McGuire Houston Dynamo Actif 126 / 133 40% 2 12.09.2026 -
Nardin Mulahusejnović Vojvodina Actif 128 / 115 40% 1 12.09.2026 -
Bongokuhle Hlongwane Minnesota United FC Actif 138 / 132 40% 1 11.09.2026 -
Gonzalo Carneiro Sparta Prague Actif 113 / 110 40% 1 10.09.2026 -
Ole Sæter Valerenga Actif 125 / 129 40% 1 07.09.2026 -
Juan Manuel Martínez Trejo Atvidaberg Actif 104 / 104 30% 1 / 1m 12.08.2026 -
Aboubacar Keita Kalmar FF Actif 105 / 101 69% 1 10.08.2026 Approuver
Tomáš Souček West Ham United Actif 134 / 136 40% 1 01.08.2026 -
Richarlison Tottenham Actif 134 / 156 40% 1 01.08.2026 -